Piedmont Triad International Airport
KGSO : rendu visible

Aérodrome :











RETROUVEZ-NOUS SUR...

 
LOGIN :

S'inscrire | Disclaimer

   EN    FR    IT 

 









Légende :    VFR   VFR Marginal   IFR   IFR Intensif   IFR Très Intensif
Visi : 
Plafond : 
>= 8 km
>= 3000ft
5 à 8 km
1000 à 3000 ft
1500m à 5 km
500 à 1000 ft
800 à 1500m
200 à 500 ft
< 800m
< 200 ft
Symboles :   Orages  Brouillard  Fortes neiges  Fortes précipitations  Vent > 20 kt






- Altitude de l'aérodrome : 925 ft
- Code IATA : GSO


KGSO - Piedmont Triad International

DERNIER METAR :
  • 081854Z 29010G16KT 10SM SCT060 BKN250 26/14 A2970 RMK AO2 SLP048 T02610139

METARs EXPIRÉS :
  • 081754Z 25009KT 10SM SCT050 BKN250 26/14 A2974 RMK AO2 SLP059 T02610139 10261 20167 58022
  • 081654Z VRB04KT 10SM FEW050 BKN250 24/14 A2976 RMK AO2 SLP068 T02440139

TAF KGSO
Valide du 08 à 18h jusqu'au 09 à 18h UTC


081739Z 0818/0918 VRB04KT P6SM FEW050 BKN250
TEMPO 0820/0822 VRB16G30KT 4SM TSRA BR BKN040CB BKN070
FM090600 30004KT P6SM BKN080 BKN150
TEMPO 0910/0914 5SM -SHRA BR BKN040 OVC080
FM091400 28017G28KT P6SM SCT050



MET'MAP, la Météo Aéronautique d'un coup d'oeil ! - Copyright ORBIFLY Décembre 2007 - Disclaimer

ORBIFLY MET'MAP TEAM :

Programmation & Développement : Alexandra Zaïnal
Sur une idée originale de : Baudouin d'Aumeries
Assistance à la programmation : Marc-Olivier Méhu
Soutien technique & logistique : Manuel Goepfert

Contact : metmap@orbifly.com




SOURCES & CREDITS :

   NOAA       Earth
Advisory